Terminal Aerodrome Forecast
Issued by NWS Boston, MA

Home | Current Version | Previous Version | Text Only | Print | Product List | Glossary On
Versions: 1 2 3 4 5 6 7 8 9 10 11 12 13 14 15 16 17 18 19 20 21 22 23 24 25 26 27 28 29 30 31 32 33 34 35 36 37 38 39 40 41 42 43 44 45 46 47 48
000
FTUS41 KBOX 270843 AAC
TAFBOS
TAF AMD
KBOS 270843Z 2709/2812 11010KT P6SM VCSH OVC020
     FM271100 12008KT 5SM -RA BR OVC008
     FM272100 10004KT 3/4SM -RA BR OVC003
     FM272200 07004KT 1 1/2SM -SHRA BR OVC003
     FM272300 01004KT 1 1/2SM BR VCSH OVC003
     FM280000 34004KT 3SM BR OVC003
     FM280300 30004KT P6SM OVC003
     FM281000 00000KT 4SM BR BKN010=

USA.gov is the U.S. government's official web portal to all federal, state and local government web resources and services.